sensor_id;sensor_type;location;lat;lon;timestamp;P1;durP1;ratioP1;P2;durP2;ratioP2
15608;SDS011;64278;45.642;13.756;2023-04-01T00:00:18;2.92;;;2.08;;
15608;SDS011;64278;45.642;13.756;2023-04-01T00:02:44;2.15;;;2.00;;
15608;SDS011;64278;45.642;13.756;2023-04-01T00:05:10;2.10;;;1.90;;
15608;SDS011;64278;45.642;13.756;2023-04-01T00:07:37;2.65;;;2.45;;
15608;SDS011;64278;45.642;13.756;2023-04-01T00:10:04;2.70;;;2.03;;
15608;SDS011;64278;45.642;13.756;2023-04-01T00:12:31;2.35;;;1.95;;
15608;SDS011;64278;45.642;13.756;2023-04-01T00:14:57;2.85;;;1.90;;
15608;SDS011;64278;45.642;13.756;2023-04-01T00:17:23;3.08;;;2.05;;
15608;SDS011;64278;45.642;13.756;2023-04-01T00:19:48;2.08;;;1.98;;
15608;SDS011;64278;45.642;13.756;2023-04-01T00:22:14;3.00;;;2.13;;
15608;SDS011;64278;45.642;13.756;2023-04-01T00:24:40;2.60;;;1.98;;
15608;SDS011;64278;45.642;13.756;2023-04-01T00:27:06;2.00;;;1.90;;
15608;SDS011;64278;45.642;13.756;2023-04-01T00:29:33;2.67;;;2.15;;
15608;SDS011;64278;45.642;13.756;2023-04-01T00:31:59;2.72;;;2.20;;
15608;SDS011;64278;45.642;13.756;2023-04-01T00:34:24;2.30;;;2.10;;
15608;SDS011;64278;45.642;13.756;2023-04-01T00:36:51;1.92;;;1.80;;
15608;SDS011;64278;45.642;13.756;2023-04-01T00:39:18;1.90;;;1.80;;
15608;SDS011;64278;45.642;13.756;2023-04-01T00:41:44;2.03;;;1.83;;
15608;SDS011;64278;45.642;13.756;2023-04-01T00:44:18;1.95;;;1.77;;
15608;SDS011;64278;45.642;13.756;2023-04-01T00:46:46;2.55;;;1.70;;
15608;SDS011;64278;45.642;13.756;2023-04-01T00:49:12;2.00;;;1.80;;
15608;SDS011;64278;45.642;13.756;2023-04-01T00:51:39;1.88;;;1.77;;
15608;SDS011;64278;45.642;13.756;2023-04-01T00:54:07;2.13;;;1.88;;
15608;SDS011;64278;45.642;13.756;2023-04-01T00:56:35;2.17;;;1.92;;
15608;SDS011;64278;45.642;13.756;2023-04-01T00:59:15;2.67;;;1.88;;
15608;SDS011;64278;45.642;13.756;2023-04-01T01:01:44;2.65;;;1.80;;
15608;SDS011;64278;45.642;13.756;2023-04-01T01:04:26;1.60;;;1.50;;
15608;SDS011;64278;45.642;13.756;2023-04-01T01:23:29;1.95;;;1.77;;
15608;SDS011;64278;45.642;13.756;2023-04-01T01:37:22;2.00;;;1.80;;
15608;SDS011;64278;45.642;13.756;2023-04-01T01:39:55;1.42;;;1.33;;
15608;SDS011;64278;45.642;13.756;2023-04-01T01:42:26;1.33;;;1.23;;
15608;SDS011;64278;45.642;13.756;2023-04-01T01:44:54;1.10;;;1.10;;
15608;SDS011;64278;45.642;13.756;2023-04-01T01:47:22;1.50;;;1.15;;
15608;SDS011;64278;45.642;13.756;2023-04-01T01:49:49;1.25;;;1.15;;
15608;SDS011;64278;45.642;13.756;2023-04-01T01:52:18;1.27;;;1.17;;
15608;SDS011;64278;45.642;13.756;2023-04-01T01:54:50;1.65;;;1.55;;
15608;SDS011;64278;45.642;13.756;2023-04-01T01:57:17;1.00;;;0.90;;
15608;SDS011;64278;45.642;13.756;2023-04-01T01:59:48;1.40;;;1.20;;
15608;SDS011;64278;45.642;13.756;2023-04-01T02:02:15;1.30;;;1.20;;
15608;SDS011;64278;45.642;13.756;2023-04-01T02:04:42;1.42;;;1.33;;
15608;SDS011;64278;45.642;13.756;2023-04-01T02:07:12;1.30;;;1.20;;
15608;SDS011;64278;45.642;13.756;2023-04-01T02:09:42;1.30;;;1.20;;
15608;SDS011;64278;45.642;13.756;2023-04-01T02:12:09;1.27;;;1.17;;
15608;SDS011;64278;45.642;13.756;2023-04-01T02:17:07;1.70;;;1.60;;
15608;SDS011;64278;45.642;13.756;2023-04-01T02:19:38;1.23;;;1.13;;
15608;SDS011;64278;45.642;13.756;2023-04-01T02:22:08;1.13;;;1.05;;
15608;SDS011;64278;45.642;13.756;2023-04-01T02:24:38;2.20;;;1.17;;
15608;SDS011;64278;45.642;13.756;2023-04-01T02:27:06;1.02;;;0.93;;
15608;SDS011;64278;45.642;13.756;2023-04-01T02:29:33;1.00;;;1.00;;
15608;SDS011;64278;45.642;13.756;2023-04-01T02:31:59;1.23;;;1.13;;
15608;SDS011;64278;45.642;13.756;2023-04-01T02:34:25;1.00;;;0.90;;
15608;SDS011;64278;45.642;13.756;2023-04-01T02:36:51;1.42;;;1.23;;
15608;SDS011;64278;45.642;13.756;2023-04-01T02:39:18;1.17;;;1.13;;
15608;SDS011;64278;45.642;13.756;2023-04-01T02:41:44;1.20;;;1.13;;
15608;SDS011;64278;45.642;13.756;2023-04-01T02:44:11;1.58;;;1.30;;
15608;SDS011;64278;45.642;13.756;2023-04-01T02:46:38;1.38;;;1.27;;
15608;SDS011;64278;45.642;13.756;2023-04-01T02:49:04;1.40;;;1.00;;
15608;SDS011;64278;45.642;13.756;2023-04-01T02:51:31;1.13;;;1.02;;
15608;SDS011;64278;45.642;13.756;2023-04-01T02:53:57;1.20;;;1.08;;
15608;SDS011;64278;45.642;13.756;2023-04-01T02:56:23;1.70;;;1.27;;
15608;SDS011;64278;45.642;13.756;2023-04-01T02:58:51;1.52;;;1.08;;
15608;SDS011;64278;45.642;13.756;2023-04-01T03:01:16;0.90;;;0.80;;
15608;SDS011;64278;45.642;13.756;2023-04-01T03:03:42;1.40;;;1.30;;
15608;SDS011;64278;45.642;13.756;2023-04-01T03:06:09;0.88;;;0.88;;
15608;SDS011;64278;45.642;13.756;2023-04-01T03:08:37;1.52;;;1.08;;
15608;SDS011;64278;45.642;13.756;2023-04-01T03:11:03;0.90;;;0.90;;
15608;SDS011;64278;45.642;13.756;2023-04-01T03:13:30;0.90;;;0.90;;
15608;SDS011;64278;45.642;13.756;2023-04-01T03:15:55;0.98;;;0.98;;
15608;SDS011;64278;45.642;13.756;2023-04-01T03:18:21;1.20;;;1.10;;
15608;SDS011;64278;45.642;13.756;2023-04-01T03:20:47;1.10;;;1.00;;
15608;SDS011;64278;45.642;13.756;2023-04-01T03:23:12;1.20;;;1.10;;
15608;SDS011;64278;45.642;13.756;2023-04-01T03:25:38;1.35;;;0.95;;
15608;SDS011;64278;45.642;13.756;2023-04-01T03:28:04;1.00;;;0.90;;
15608;SDS011;64278;45.642;13.756;2023-04-01T03:30:30;1.65;;;1.50;;
15608;SDS011;64278;45.642;13.756;2023-04-01T03:32:56;1.00;;;0.98;;
15608;SDS011;64278;45.642;13.756;2023-04-01T03:35:23;0.80;;;0.70;;
15608;SDS011;64278;45.642;13.756;2023-04-01T03:37:52;1.08;;;1.00;;
15608;SDS011;64278;45.642;13.756;2023-04-01T03:40:19;1.20;;;1.10;;
15608;SDS011;64278;45.642;13.756;2023-04-01T03:42:45;0.90;;;0.90;;
15608;SDS011;64278;45.642;13.756;2023-04-01T03:45:11;0.90;;;0.90;;
15608;SDS011;64278;45.642;13.756;2023-04-01T03:47:37;0.85;;;0.85;;
15608;SDS011;64278;45.642;13.756;2023-04-01T03:50:04;1.00;;;1.00;;
15608;SDS011;64278;45.642;13.756;2023-04-01T03:52:33;0.80;;;0.80;;
15608;SDS011;64278;45.642;13.756;2023-04-01T03:54:59;0.80;;;0.80;;
15608;SDS011;64278;45.642;13.756;2023-04-01T03:57:25;1.02;;;0.93;;
15608;SDS011;64278;45.642;13.756;2023-04-01T03:59:51;0.95;;;0.88;;
15608;SDS011;64278;45.642;13.756;2023-04-01T04:02:16;0.77;;;0.77;;
15608;SDS011;64278;45.642;13.756;2023-04-01T04:04:42;1.00;;;0.90;;
15608;SDS011;64278;45.642;13.756;2023-04-01T04:07:08;0.90;;;0.90;;
15608;SDS011;64278;45.642;13.756;2023-04-01T04:09:34;0.82;;;0.82;;
15608;SDS011;64278;45.642;13.756;2023-04-01T04:12:00;0.80;;;0.75;;
15608;SDS011;64278;45.642;13.756;2023-04-01T04:14:26;1.17;;;1.08;;
15608;SDS011;64278;45.642;13.756;2023-04-01T04:16:51;0.77;;;0.77;;
15608;SDS011;64278;45.642;13.756;2023-04-01T04:19:17;0.80;;;0.80;;
15608;SDS011;64278;45.642;13.756;2023-04-01T04:21:46;1.10;;;0.73;;
15608;SDS011;64278;45.642;13.756;2023-04-01T04:24:12;0.77;;;0.77;;
15608;SDS011;64278;45.642;13.756;2023-04-01T04:26:38;1.05;;;0.90;;
15608;SDS011;64278;45.642;13.756;2023-04-01T04:29:04;0.98;;;0.90;;
15608;SDS011;64278;45.642;13.756;2023-04-01T04:31:30;0.65;;;0.60;;
15608;SDS011;64278;45.642;13.756;2023-04-01T04:33:58;0.70;;;0.70;;
15608;SDS011;64278;45.642;13.756;2023-04-01T04:36:25;0.88;;;0.88;;
15608;SDS011;64278;45.642;13.756;2023-04-01T04:38:51;1.13;;;1.02;;
15608;SDS011;64278;45.642;13.756;2023-04-01T04:41:17;1.50;;;1.00;;
15608;SDS011;64278;45.642;13.756;2023-04-01T04:43:48;1.02;;;0.70;;
15608;SDS011;64278;45.642;13.756;2023-04-01T04:46:15;1.27;;;0.80;;
15608;SDS011;64278;45.642;13.756;2023-04-01T04:48:41;0.82;;;0.80;;
15608;SDS011;64278;45.642;13.756;2023-04-01T04:51:11;0.70;;;0.70;;
15608;SDS011;64278;45.642;13.756;2023-04-01T04:53:42;0.80;;;0.80;;
15608;SDS011;64278;45.642;13.756;2023-04-01T04:56:08;0.90;;;0.90;;
15608;SDS011;64278;45.642;13.756;2023-04-01T04:58:33;0.73;;;0.70;;
15608;SDS011;64278;45.642;13.756;2023-04-01T05:01:05;1.10;;;0.70;;
15608;SDS011;64278;45.642;13.756;2023-04-01T05:03:38;0.60;;;0.60;;
15608;SDS011;64278;45.642;13.756;2023-04-01T05:06:04;0.80;;;0.80;;
15608;SDS011;64278;45.642;13.756;2023-04-01T05:08:31;0.80;;;0.80;;
15608;SDS011;64278;45.642;13.756;2023-04-01T05:10:57;0.73;;;0.73;;
15608;SDS011;64278;45.642;13.756;2023-04-01T05:13:24;0.60;;;0.60;;
15608;SDS011;64278;45.642;13.756;2023-04-01T05:15:50;0.80;;;0.80;;
15608;SDS011;64278;45.642;13.756;2023-04-01T05:18:16;0.80;;;0.80;;
15608;SDS011;64278;45.642;13.756;2023-04-01T05:20:48;0.80;;;0.80;;
15608;SDS011;64278;45.642;13.756;2023-04-01T05:23:16;0.77;;;0.77;;
15608;SDS011;64278;45.642;13.756;2023-04-01T05:25:42;0.77;;;0.77;;
15608;SDS011;64278;45.642;13.756;2023-04-01T05:28:10;0.70;;;0.70;;
15608;SDS011;64278;45.642;13.756;2023-04-01T05:30:36;0.77;;;0.77;;
15608;SDS011;64278;45.642;13.756;2023-04-01T05:33:01;0.80;;;0.80;;
15608;SDS011;64278;45.642;13.756;2023-04-01T05:35:27;0.70;;;0.70;;
15608;SDS011;64278;45.642;13.756;2023-04-01T05:37:53;0.90;;;0.82;;
15608;SDS011;64278;45.642;13.756;2023-04-01T05:40:19;0.70;;;0.70;;
15608;SDS011;64278;45.642;13.756;2023-04-01T05:42:45;0.70;;;0.70;;
15608;SDS011;64278;45.642;13.756;2023-04-01T05:45:11;0.70;;;0.70;;
15608;SDS011;64278;45.642;13.756;2023-04-01T05:47:36;1.15;;;0.90;;
15608;SDS011;64278;45.642;13.756;2023-04-01T05:50:02;0.80;;;0.80;;
15608;SDS011;64278;45.642;13.756;2023-04-01T05:52:28;0.60;;;0.60;;
15608;SDS011;64278;45.642;13.756;2023-04-01T05:54:53;0.50;;;0.50;;
15608;SDS011;64278;45.642;13.756;2023-04-01T05:57:19;0.65;;;0.65;;
15608;SDS011;64278;45.642;13.756;2023-04-01T05:59:45;0.80;;;0.80;;
15608;SDS011;64278;45.642;13.756;2023-04-01T06:02:11;0.70;;;0.68;;
15608;SDS011;64278;45.642;13.756;2023-04-01T06:04:38;0.90;;;0.77;;
15608;SDS011;64278;45.642;13.756;2023-04-01T06:07:09;1.35;;;0.65;;
15608;SDS011;64278;45.642;13.756;2023-04-01T06:09:40;0.70;;;0.70;;
15608;SDS011;64278;45.642;13.756;2023-04-01T06:22:55;1.17;;;1.08;;
15608;SDS011;64278;45.642;13.756;2023-04-01T06:36:38;0.68;;;0.68;;
15608;SDS011;64278;45.642;13.756;2023-04-01T06:39:15;0.90;;;0.82;;
15608;SDS011;64278;45.642;13.756;2023-04-01T06:41:58;0.75;;;0.75;;
15608;SDS011;64278;45.642;13.756;2023-04-01T06:57:52;0.85;;;0.77;;
15608;SDS011;64278;45.642;13.756;2023-04-01T07:00:31;1.00;;;0.90;;
15608;SDS011;64278;45.642;13.756;2023-04-01T07:05:43;1.02;;;0.93;;
15608;SDS011;64278;45.642;13.756;2023-04-01T07:08:10;0.90;;;0.80;;
15608;SDS011;64278;45.642;13.756;2023-04-01T07:13:58;0.75;;;0.75;;
15608;SDS011;64278;45.642;13.756;2023-04-01T07:16:11;1.20;;;1.10;;
15608;SDS011;64278;45.642;13.756;2023-04-01T07:18:52;1.88;;;1.20;;
15608;SDS011;64278;45.642;13.756;2023-04-01T07:21:25;1.08;;;0.70;;
15608;SDS011;64278;45.642;13.756;2023-04-01T07:23:56;0.80;;;0.70;;
15608;SDS011;64278;45.642;13.756;2023-04-01T07:26:27;1.08;;;1.05;;
15608;SDS011;64278;45.642;13.756;2023-04-01T07:28:53;0.80;;;0.80;;
15608;SDS011;64278;45.642;13.756;2023-04-01T07:31:22;1.45;;;1.17;;
15608;SDS011;64278;45.642;13.756;2023-04-01T07:50:06;1.35;;;1.10;;
15608;SDS011;64278;45.642;13.756;2023-04-01T08:01:24;1.38;;;1.20;;
15608;SDS011;64278;45.642;13.756;2023-04-01T08:07:09;1.27;;;1.13;;
15608;SDS011;64278;45.642;13.756;2023-04-01T08:10:01;1.95;;;1.52;;
15608;SDS011;64278;45.642;13.756;2023-04-01T08:12:48;1.77;;;1.30;;
15608;SDS011;64278;45.642;13.756;2023-04-01T08:16:20;1.33;;;1.23;;
15608;SDS011;64278;45.642;13.756;2023-04-01T08:21:02;1.42;;;1.33;;
15608;SDS011;64278;45.642;13.756;2023-04-01T08:23:33;2.60;;;1.40;;
15608;SDS011;64278;45.642;13.756;2023-04-01T08:26:09;1.60;;;1.40;;
15608;SDS011;64278;45.642;13.756;2023-04-01T08:31:55;2.20;;;1.38;;
15608;SDS011;64278;45.642;13.756;2023-04-01T08:34:46;1.30;;;1.20;;
15608;SDS011;64278;45.642;13.756;2023-04-01T08:37:20;1.73;;;1.63;;
15608;SDS011;64278;45.642;13.756;2023-04-01T08:39:52;1.38;;;0.90;;
15608;SDS011;64278;45.642;13.756;2023-04-01T08:48:31;3.08;;;1.20;;
15608;SDS011;64278;45.642;13.756;2023-04-01T08:56:26;1.30;;;1.15;;
15608;SDS011;64278;45.642;13.756;2023-04-01T09:01:46;1.30;;;1.20;;
15608;SDS011;64278;45.642;13.756;2023-04-01T09:27:02;1.50;;;1.20;;
15608;SDS011;64278;45.642;13.756;2023-04-01T09:29:39;2.40;;;1.33;;
15608;SDS011;64278;45.642;13.756;2023-04-01T09:38:01;1.52;;;1.30;;
15608;SDS011;64278;45.642;13.756;2023-04-01T09:46:16;1.60;;;1.00;;
15608;SDS011;64278;45.642;13.756;2023-04-01T10:00:55;1.48;;;1.13;;
15608;SDS011;64278;45.642;13.756;2023-04-01T10:23:18;3.65;;;1.65;;
15608;SDS011;64278;45.642;13.756;2023-04-01T10:26:05;2.13;;;1.50;;
15608;SDS011;64278;45.642;13.756;2023-04-01T11:39:20;4.68;;;1.60;;
15608;SDS011;64278;45.642;13.756;2023-04-01T11:44:26;4.07;;;1.65;;
15608;SDS011;64278;45.642;13.756;2023-04-01T11:49:43;3.95;;;2.05;;
15608;SDS011;64278;45.642;13.756;2023-04-01T12:03:43;3.47;;;1.70;;
15608;SDS011;64278;45.642;13.756;2023-04-01T12:17:19;2.75;;;1.67;;
15608;SDS011;64278;45.642;13.756;2023-04-01T12:20:01;3.20;;;2.10;;
15608;SDS011;64278;45.642;13.756;2023-04-01T12:22:43;3.72;;;1.75;;
15608;SDS011;64278;45.642;13.756;2023-04-01T12:25:38;2.60;;;1.73;;
15608;SDS011;64278;45.642;13.756;2023-04-01T12:28:25;2.85;;;1.70;;
15608;SDS011;64278;45.642;13.756;2023-04-01T12:31:31;4.47;;;2.00;;
15608;SDS011;64278;45.642;13.756;2023-04-01T12:37:33;4.28;;;2.15;;
15608;SDS011;64278;45.642;13.756;2023-04-01T13:10:42;2.63;;;1.70;;
15608;SDS011;64278;45.642;13.756;2023-04-01T13:26:50;2.38;;;1.70;;
15608;SDS011;64278;45.642;13.756;2023-04-01T13:29:32;2.60;;;1.42;;
15608;SDS011;64278;45.642;13.756;2023-04-01T13:32:29;2.90;;;1.38;;
15608;SDS011;64278;45.642;13.756;2023-04-01T13:38:14;3.05;;;1.60;;
15608;SDS011;64278;45.642;13.756;2023-04-01T13:41:00;1.73;;;1.63;;
15608;SDS011;64278;45.642;13.756;2023-04-01T13:43:49;4.85;;;2.03;;
15608;SDS011;64278;45.642;13.756;2023-04-01T13:46:32;4.28;;;1.50;;
15608;SDS011;64278;45.642;13.756;2023-04-01T13:49:28;1.45;;;1.30;;
15608;SDS011;64278;45.642;13.756;2023-04-01T13:57:56;4.35;;;1.73;;
15608;SDS011;64278;45.642;13.756;2023-04-01T14:26:27;3.05;;;1.55;;
15608;SDS011;64278;45.642;13.756;2023-04-01T14:34:40;1.58;;;1.48;;
15608;SDS011;64278;45.642;13.756;2023-04-01T14:42:59;1.90;;;1.35;;
15608;SDS011;64278;45.642;13.756;2023-04-01T14:53:43;1.40;;;1.30;;
15608;SDS011;64278;45.642;13.756;2023-04-01T14:56:34;1.48;;;1.38;;
15608;SDS011;64278;45.642;13.756;2023-04-01T15:01:59;1.40;;;1.30;;
15608;SDS011;64278;45.642;13.756;2023-04-01T15:25:05;3.83;;;1.98;;
15608;SDS011;64278;45.642;13.756;2023-04-01T15:33:29;1.48;;;1.25;;
15608;SDS011;64278;45.642;13.756;2023-04-01T15:44:42;1.67;;;0.93;;
15608;SDS011;64278;45.642;13.756;2023-04-01T16:00:33;1.27;;;0.98;;
15608;SDS011;64278;45.642;13.756;2023-04-01T16:05:37;1.42;;;0.73;;
15608;SDS011;64278;45.642;13.756;2023-04-01T16:11:25;2.35;;;1.15;;
15608;SDS011;64278;45.642;13.756;2023-04-01T16:19:44;1.08;;;0.88;;
15608;SDS011;64278;45.642;13.756;2023-04-01T16:22:28;1.27;;;1.17;;
15608;SDS011;64278;45.642;13.756;2023-04-01T16:25:20;1.55;;;1.00;;
15608;SDS011;64278;45.642;13.756;2023-04-01T16:36:09;1.20;;;1.10;;
15608;SDS011;64278;45.642;13.756;2023-04-01T16:38:50;2.58;;;0.90;;
15608;SDS011;64278;45.642;13.756;2023-04-01T16:41:35;1.02;;;0.88;;
15608;SDS011;64278;45.642;13.756;2023-04-01T16:44:10;1.30;;;1.00;;
15608;SDS011;64278;45.642;13.756;2023-04-01T16:46:56;1.48;;;0.90;;
15608;SDS011;64278;45.642;13.756;2023-04-01T16:49:46;0.93;;;0.93;;
15608;SDS011;64278;45.642;13.756;2023-04-01T16:58:25;1.17;;;0.95;;
15608;SDS011;64278;45.642;13.756;2023-04-01T17:03:41;0.85;;;0.85;;
15608;SDS011;64278;45.642;13.756;2023-04-01T17:11:19;2.20;;;1.00;;
15608;SDS011;64278;45.642;13.756;2023-04-01T17:22:19;1.50;;;1.23;;
15608;SDS011;64278;45.642;13.756;2023-04-01T17:30:22;1.67;;;1.58;;
15608;SDS011;64278;45.642;13.756;2023-04-01T17:41:42;1.13;;;0.90;;
15608;SDS011;64278;45.642;13.756;2023-04-01T17:54:57;1.60;;;1.40;;
15608;SDS011;64278;45.642;13.756;2023-04-01T18:06:21;2.28;;;1.38;;
15608;SDS011;64278;45.642;13.756;2023-04-01T18:23:00;1.80;;;1.70;;
15608;SDS011;64278;45.642;13.756;2023-04-01T18:25:37;1.88;;;1.73;;
15608;SDS011;64278;45.642;13.756;2023-04-01T18:36:16;4.85;;;2.17;;
15608;SDS011;64278;45.642;13.756;2023-04-01T18:39:11;3.15;;;2.20;;
15608;SDS011;64278;45.642;13.756;2023-04-01T18:47:26;3.83;;;2.28;;
15608;SDS011;64278;45.642;13.756;2023-04-01T18:50:27;2.58;;;2.30;;
15608;SDS011;64278;45.642;13.756;2023-04-01T18:55:47;2.42;;;2.10;;
15608;SDS011;64278;45.642;13.756;2023-04-01T18:58:25;2.97;;;2.33;;
15608;SDS011;64278;45.642;13.756;2023-04-01T19:06:50;2.70;;;2.50;;
15608;SDS011;64278;45.642;13.756;2023-04-01T19:12:30;2.60;;;2.40;;
15608;SDS011;64278;45.642;13.756;2023-04-01T19:20:44;5.00;;;2.45;;
15608;SDS011;64278;45.642;13.756;2023-04-01T19:25:49;2.90;;;2.60;;
15608;SDS011;64278;45.642;13.756;2023-04-01T19:33:54;2.53;;;2.10;;
15608;SDS011;64278;45.642;13.756;2023-04-01T19:36:50;2.20;;;2.00;;
15608;SDS011;64278;45.642;13.756;2023-04-01T19:39:31;2.75;;;2.55;;
15608;SDS011;64278;45.642;13.756;2023-04-01T20:00:27;2.65;;;2.45;;
15608;SDS011;64278;45.642;13.756;2023-04-01T20:05:41;3.33;;;2.55;;
15608;SDS011;64278;45.642;13.756;2023-04-01T20:11:27;2.88;;;2.65;;
15608;SDS011;64278;45.642;13.756;2023-04-01T20:19:39;2.92;;;2.40;;
15608;SDS011;64278;45.642;13.756;2023-04-01T20:25:45;3.67;;;2.65;;
15608;SDS011;64278;45.642;13.756;2023-04-01T20:30:50;3.50;;;3.13;;
15608;SDS011;64278;45.642;13.756;2023-04-01T20:42:20;3.40;;;3.10;;
15608;SDS011;64278;45.642;13.756;2023-04-01T20:44:58;3.88;;;3.33;;
15608;SDS011;64278;45.642;13.756;2023-04-01T20:50:19;4.05;;;3.55;;
15608;SDS011;64278;45.642;13.756;2023-04-01T20:55:26;3.30;;;3.00;;
15608;SDS011;64278;45.642;13.756;2023-04-01T21:29:16;5.05;;;3.45;;
15608;SDS011;64278;45.642;13.756;2023-04-01T21:34:40;3.72;;;3.42;;
15608;SDS011;64278;45.642;13.756;2023-04-01T21:40:32;3.55;;;3.25;;
15608;SDS011;64278;45.642;13.756;2023-04-01T22:08:07;3.80;;;3.50;;
15608;SDS011;64278;45.642;13.756;2023-04-01T22:11:19;3.70;;;3.35;;
15608;SDS011;64278;45.642;13.756;2023-04-01T22:21:43;3.67;;;3.45;;
15608;SDS011;64278;45.642;13.756;2023-04-01T22:30:24;3.90;;;3.60;;
15608;SDS011;64278;45.642;13.756;2023-04-01T22:33:04;3.38;;;3.00;;
15608;SDS011;64278;45.642;13.756;2023-04-01T22:49:47;3.33;;;3.03;;
15608;SDS011;64278;45.642;13.756;2023-04-01T22:52:53;3.25;;;3.05;;
15608;SDS011;64278;45.642;13.756;2023-04-01T22:55:42;3.67;;;3.38;;
15608;SDS011;64278;45.642;13.756;2023-04-01T22:58:21;3.58;;;3.28;;
15608;SDS011;64278;45.642;13.756;2023-04-01T23:01:03;3.97;;;3.33;;
15608;SDS011;64278;45.642;13.756;2023-04-01T23:03:34;3.35;;;3.10;;
15608;SDS011;64278;45.642;13.756;2023-04-01T23:06:05;3.25;;;3.05;;
15608;SDS011;64278;45.642;13.756;2023-04-01T23:11:33;3.60;;;3.30;;
15608;SDS011;64278;45.642;13.756;2023-04-01T23:19:41;3.67;;;3.33;;
15608;SDS011;64278;45.642;13.756;2023-04-01T23:27:23;3.70;;;3.40;;
15608;SDS011;64278;45.642;13.756;2023-04-01T23:30:00;3.30;;;3.10;;
15608;SDS011;64278;45.642;13.756;2023-04-01T23:32:26;4.07;;;3.50;;
15608;SDS011;64278;45.642;13.756;2023-04-01T23:34:53;3.90;;;3.17;;
15608;SDS011;64278;45.642;13.756;2023-04-01T23:37:21;3.75;;;3.30;;
15608;SDS011;64278;45.642;13.756;2023-04-01T23:44:58;4.07;;;3.40;;
15608;SDS011;64278;45.642;13.756;2023-04-01T23:47:29;3.10;;;2.90;;
15608;SDS011;64278;45.642;13.756;2023-04-01T23:50:04;3.15;;;2.95;;
15608;SDS011;64278;45.642;13.756;2023-04-01T23:52:35;3.50;;;3.20;;
15608;SDS011;64278;45.642;13.756;2023-04-01T23:57:37;3.60;;;3.30;;
